sensor_id;sensor_type;location;lat;lon;timestamp;P1;durP1;ratioP1;P2;durP2;ratioP2
37529;SDS011;23374;52.758;6.872;2023-02-13T00:00:29;20.47;;;7.77;;
37529;SDS011;23374;52.758;6.872;2023-02-13T00:02:50;15.80;;;7.53;;
37529;SDS011;23374;52.758;6.872;2023-02-13T00:05:10;13.30;;;6.67;;
37529;SDS011;23374;52.758;6.872;2023-02-13T00:07:31;15.30;;;7.47;;
37529;SDS011;23374;52.758;6.872;2023-02-13T00:09:51;13.67;;;6.90;;
37529;SDS011;23374;52.758;6.872;2023-02-13T00:12:12;12.13;;;6.43;;
37529;SDS011;23374;52.758;6.872;2023-02-13T00:14:37;12.70;;;6.57;;
37529;SDS011;23374;52.758;6.872;2023-02-13T00:16:58;15.30;;;5.97;;
37529;SDS011;23374;52.758;6.872;2023-02-13T00:19:18;12.03;;;6.10;;
37529;SDS011;23374;52.758;6.872;2023-02-13T00:21:38;14.33;;;6.73;;
37529;SDS011;23374;52.758;6.872;2023-02-13T00:23:59;15.93;;;6.57;;
37529;SDS011;23374;52.758;6.872;2023-02-13T00:26:19;14.03;;;6.77;;
37529;SDS011;23374;52.758;6.872;2023-02-13T00:28:39;12.27;;;5.93;;
37529;SDS011;23374;52.758;6.872;2023-02-13T00:31:04;13.00;;;6.60;;
37529;SDS011;23374;52.758;6.872;2023-02-13T00:33:27;12.27;;;6.07;;
37529;SDS011;23374;52.758;6.872;2023-02-13T00:35:47;12.03;;;6.10;;
37529;SDS011;23374;52.758;6.872;2023-02-13T00:38:07;13.60;;;6.20;;
37529;SDS011;23374;52.758;6.872;2023-02-13T00:40:27;12.43;;;6.33;;
37529;SDS011;23374;52.758;6.872;2023-02-13T00:42:47;11.70;;;5.70;;
37529;SDS011;23374;52.758;6.872;2023-02-13T00:45:08;12.20;;;6.77;;
37529;SDS011;23374;52.758;6.872;2023-02-13T00:47:28;11.70;;;5.80;;
37529;SDS011;23374;52.758;6.872;2023-02-13T00:50:01;13.50;;;6.40;;
37529;SDS011;23374;52.758;6.872;2023-02-13T00:52:21;13.07;;;5.87;;
37529;SDS011;23374;52.758;6.872;2023-02-13T00:54:41;12.23;;;6.67;;
37529;SDS011;23374;52.758;6.872;2023-02-13T00:57:01;13.87;;;6.47;;
37529;SDS011;23374;52.758;6.872;2023-02-13T00:59:22;15.17;;;6.33;;
37529;SDS011;23374;52.758;6.872;2023-02-13T01:01:42;12.43;;;6.53;;
37529;SDS011;23374;52.758;6.872;2023-02-13T01:04:03;10.87;;;5.80;;
37529;SDS011;23374;52.758;6.872;2023-02-13T01:06:24;14.77;;;6.23;;
37529;SDS011;23374;52.758;6.872;2023-02-13T01:08:44;14.43;;;6.23;;
37529;SDS011;23374;52.758;6.872;2023-02-13T01:11:05;11.73;;;5.60;;
37529;SDS011;23374;52.758;6.872;2023-02-13T01:13:26;13.23;;;6.70;;
37529;SDS011;23374;52.758;6.872;2023-02-13T01:15:47;14.03;;;5.70;;
37529;SDS011;23374;52.758;6.872;2023-02-13T01:18:08;12.70;;;6.70;;
37529;SDS011;23374;52.758;6.872;2023-02-13T01:20:32;12.87;;;6.00;;
37529;SDS011;23374;52.758;6.872;2023-02-13T01:22:53;10.60;;;5.60;;
37529;SDS011;23374;52.758;6.872;2023-02-13T01:25:13;11.57;;;6.23;;
37529;SDS011;23374;52.758;6.872;2023-02-13T01:27:34;12.40;;;6.03;;
37529;SDS011;23374;52.758;6.872;2023-02-13T01:29:57;11.67;;;6.23;;
37529;SDS011;23374;52.758;6.872;2023-02-13T01:32:17;17.07;;;6.27;;
37529;SDS011;23374;52.758;6.872;2023-02-13T01:34:38;13.50;;;6.13;;
37529;SDS011;23374;52.758;6.872;2023-02-13T01:36:59;16.50;;;6.47;;
37529;SDS011;23374;52.758;6.872;2023-02-13T01:39:19;12.43;;;5.70;;
37529;SDS011;23374;52.758;6.872;2023-02-13T01:41:40;15.10;;;6.23;;
37529;SDS011;23374;52.758;6.872;2023-02-13T01:45:29;11.77;;;6.03;;
37529;SDS011;23374;52.758;6.872;2023-02-13T01:48:05;11.77;;;6.10;;
37529;SDS011;23374;52.758;6.872;2023-02-13T01:50:54;14.27;;;6.17;;
37529;SDS011;23374;52.758;6.872;2023-02-13T01:54:06;15.40;;;6.30;;
37529;SDS011;23374;52.758;6.872;2023-02-13T01:56:45;13.80;;;6.47;;
37529;SDS011;23374;52.758;6.872;2023-02-13T01:59:12;11.70;;;6.07;;
37529;SDS011;23374;52.758;6.872;2023-02-13T02:01:43;13.27;;;6.03;;
37529;SDS011;23374;52.758;6.872;2023-02-13T02:04:19;15.77;;;6.67;;
37529;SDS011;23374;52.758;6.872;2023-02-13T02:06:50;16.10;;;6.97;;
37529;SDS011;23374;52.758;6.872;2023-02-13T02:09:18;12.17;;;6.33;;
37529;SDS011;23374;52.758;6.872;2023-02-13T02:11:58;14.50;;;6.30;;
37529;SDS011;23374;52.758;6.872;2023-02-13T02:14:28;12.53;;;6.00;;
37529;SDS011;23374;52.758;6.872;2023-02-13T02:16:49;14.53;;;6.53;;
37529;SDS011;23374;52.758;6.872;2023-02-13T02:45:39;16.23;;;6.30;;
37529;SDS011;23374;52.758;6.872;2023-02-13T02:48:38;12.63;;;6.30;;
37529;SDS011;23374;52.758;6.872;2023-02-13T02:52:05;12.47;;;6.03;;
37529;SDS011;23374;52.758;6.872;2023-02-13T02:54:39;14.07;;;6.87;;
37529;SDS011;23374;52.758;6.872;2023-02-13T02:57:27;13.77;;;6.10;;
37529;SDS011;23374;52.758;6.872;2023-02-13T03:08:29;10.60;;;5.47;;
37529;SDS011;23374;52.758;6.872;2023-02-13T03:11:08;12.23;;;6.67;;
37529;SDS011;23374;52.758;6.872;2023-02-13T03:13:47;13.67;;;6.90;;
37529;SDS011;23374;52.758;6.872;2023-02-13T03:16:14;12.50;;;6.30;;
37529;SDS011;23374;52.758;6.872;2023-02-13T03:18:57;15.30;;;7.53;;
37529;SDS011;23374;52.758;6.872;2023-02-13T03:21:56;18.67;;;7.30;;
37529;SDS011;23374;52.758;6.872;2023-02-13T03:31:34;13.23;;;6.33;;
37529;SDS011;23374;52.758;6.872;2023-02-13T03:34:10;14.40;;;6.70;;
37529;SDS011;23374;52.758;6.872;2023-02-13T03:37:01;14.40;;;6.90;;
37529;SDS011;23374;52.758;6.872;2023-02-13T03:40:23;14.10;;;6.77;;
37529;SDS011;23374;52.758;6.872;2023-02-13T03:43:03;16.27;;;7.33;;
37529;SDS011;23374;52.758;6.872;2023-02-13T03:45:35;14.50;;;6.60;;
37529;SDS011;23374;52.758;6.872;2023-02-13T03:48:11;14.67;;;7.03;;
37529;SDS011;23374;52.758;6.872;2023-02-13T03:50:54;15.37;;;7.10;;
37529;SDS011;23374;52.758;6.872;2023-02-13T03:53:15;17.17;;;7.77;;
37529;SDS011;23374;52.758;6.872;2023-02-13T03:55:39;15.37;;;7.33;;
37529;SDS011;23374;52.758;6.872;2023-02-13T03:58:28;15.40;;;6.97;;
37529;SDS011;23374;52.758;6.872;2023-02-13T04:01:14;18.13;;;7.93;;
37529;SDS011;23374;52.758;6.872;2023-02-13T04:04:01;12.70;;;6.67;;
37529;SDS011;23374;52.758;6.872;2023-02-13T04:06:31;13.77;;;7.57;;
37529;SDS011;23374;52.758;6.872;2023-02-13T04:08:55;12.63;;;6.97;;
37529;SDS011;23374;52.758;6.872;2023-02-13T04:13:19;15.70;;;7.30;;
37529;SDS011;23374;52.758;6.872;2023-02-13T04:15:57;15.00;;;6.80;;
37529;SDS011;23374;52.758;6.872;2023-02-13T04:18:32;16.73;;;7.53;;
37529;SDS011;23374;52.758;6.872;2023-02-13T04:20:53;14.07;;;6.93;;
37529;SDS011;23374;52.758;6.872;2023-02-13T04:23:14;16.27;;;7.23;;
37529;SDS011;23374;52.758;6.872;2023-02-13T04:25:39;12.60;;;7.10;;
37529;SDS011;23374;52.758;6.872;2023-02-13T04:28:01;13.30;;;7.30;;
37529;SDS011;23374;52.758;6.872;2023-02-13T04:30:22;19.07;;;7.43;;
37529;SDS011;23374;52.758;6.872;2023-02-13T04:32:42;16.87;;;7.57;;
37529;SDS011;23374;52.758;6.872;2023-02-13T04:35:02;16.20;;;8.17;;
37529;SDS011;23374;52.758;6.872;2023-02-13T04:37:30;18.07;;;8.20;;
37529;SDS011;23374;52.758;6.872;2023-02-13T04:39:51;14.80;;;7.57;;
37529;SDS011;23374;52.758;6.872;2023-02-13T04:42:12;16.77;;;7.70;;
37529;SDS011;23374;52.758;6.872;2023-02-13T04:44:33;16.87;;;7.73;;
37529;SDS011;23374;52.758;6.872;2023-02-13T04:46:53;20.70;;;8.33;;
37529;SDS011;23374;52.758;6.872;2023-02-13T04:49:13;19.97;;;7.63;;
37529;SDS011;23374;52.758;6.872;2023-02-13T04:51:34;14.80;;;7.27;;
37529;SDS011;23374;52.758;6.872;2023-02-13T04:53:54;16.67;;;8.57;;
37529;SDS011;23374;52.758;6.872;2023-02-13T04:56:14;17.13;;;8.17;;
37529;SDS011;23374;52.758;6.872;2023-02-13T04:58:35;17.17;;;8.13;;
37529;SDS011;23374;52.758;6.872;2023-02-13T05:00:56;16.03;;;7.37;;
37529;SDS011;23374;52.758;6.872;2023-02-13T05:03:16;14.60;;;7.23;;
37529;SDS011;23374;52.758;6.872;2023-02-13T05:05:37;16.13;;;7.30;;
37529;SDS011;23374;52.758;6.872;2023-02-13T05:07:58;16.57;;;7.47;;
37529;SDS011;23374;52.758;6.872;2023-02-13T05:10:20;21.20;;;7.37;;
37529;SDS011;23374;52.758;6.872;2023-02-13T05:12:40;17.63;;;7.67;;
37529;SDS011;23374;52.758;6.872;2023-02-13T05:15:01;13.73;;;7.43;;
37529;SDS011;23374;52.758;6.872;2023-02-13T05:17:21;19.53;;;8.00;;
37529;SDS011;23374;52.758;6.872;2023-02-13T05:19:42;19.00;;;8.10;;
37529;SDS011;23374;52.758;6.872;2023-02-13T05:22:03;15.80;;;7.57;;
37529;SDS011;23374;52.758;6.872;2023-02-13T05:24:42;17.43;;;7.50;;
37529;SDS011;23374;52.758;6.872;2023-02-13T05:27:03;18.40;;;7.97;;
37529;SDS011;23374;52.758;6.872;2023-02-13T05:29:23;15.70;;;7.37;;
37529;SDS011;23374;52.758;6.872;2023-02-13T05:31:48;19.50;;;7.73;;
37529;SDS011;23374;52.758;6.872;2023-02-13T05:34:11;15.73;;;7.77;;
37529;SDS011;23374;52.758;6.872;2023-02-13T05:36:33;18.87;;;7.97;;
37529;SDS011;23374;52.758;6.872;2023-02-13T05:38:53;21.07;;;8.73;;
37529;SDS011;23374;52.758;6.872;2023-02-13T05:41:13;21.17;;;8.17;;
37529;SDS011;23374;52.758;6.872;2023-02-13T05:43:33;17.47;;;7.83;;
37529;SDS011;23374;52.758;6.872;2023-02-13T05:46:02;22.27;;;7.73;;
37529;SDS011;23374;52.758;6.872;2023-02-13T05:48:27;14.33;;;7.30;;
37529;SDS011;23374;52.758;6.872;2023-02-13T05:51:57;16.87;;;8.13;;
37529;SDS011;23374;52.758;6.872;2023-02-13T05:54:18;19.13;;;8.33;;
37529;SDS011;23374;52.758;6.872;2023-02-13T05:56:38;26.50;;;8.27;;
37529;SDS011;23374;52.758;6.872;2023-02-13T05:58:59;22.73;;;9.03;;
37529;SDS011;23374;52.758;6.872;2023-02-13T06:01:20;16.13;;;7.63;;
37529;SDS011;23374;52.758;6.872;2023-02-13T06:03:41;17.37;;;8.10;;
37529;SDS011;23374;52.758;6.872;2023-02-13T06:06:02;15.73;;;7.50;;
37529;SDS011;23374;52.758;6.872;2023-02-13T06:08:24;18.80;;;7.53;;
37529;SDS011;23374;52.758;6.872;2023-02-13T06:10:45;16.90;;;7.10;;
37529;SDS011;23374;52.758;6.872;2023-02-13T06:13:06;17.13;;;7.70;;
37529;SDS011;23374;52.758;6.872;2023-02-13T06:15:26;20.17;;;7.73;;
37529;SDS011;23374;52.758;6.872;2023-02-13T06:17:46;13.67;;;7.17;;
37529;SDS011;23374;52.758;6.872;2023-02-13T06:20:08;15.00;;;6.77;;
37529;SDS011;23374;52.758;6.872;2023-02-13T06:22:28;15.70;;;7.17;;
37529;SDS011;23374;52.758;6.872;2023-02-13T06:24:49;17.83;;;8.07;;
37529;SDS011;23374;52.758;6.872;2023-02-13T06:27:09;22.47;;;9.00;;
37529;SDS011;23374;52.758;6.872;2023-02-13T06:29:29;18.97;;;7.97;;
37529;SDS011;23374;52.758;6.872;2023-02-13T06:31:51;16.27;;;7.97;;
37529;SDS011;23374;52.758;6.872;2023-02-13T06:34:12;18.07;;;7.53;;
37529;SDS011;23374;52.758;6.872;2023-02-13T06:36:33;20.23;;;8.30;;
37529;SDS011;23374;52.758;6.872;2023-02-13T06:38:53;18.40;;;8.17;;
37529;SDS011;23374;52.758;6.872;2023-02-13T06:41:14;18.23;;;7.77;;
37529;SDS011;23374;52.758;6.872;2023-02-13T06:43:34;24.37;;;8.20;;
37529;SDS011;23374;52.758;6.872;2023-02-13T06:45:55;17.23;;;7.70;;
37529;SDS011;23374;52.758;6.872;2023-02-13T06:48:15;16.23;;;7.83;;
37529;SDS011;23374;52.758;6.872;2023-02-13T06:50:36;18.93;;;8.30;;
37529;SDS011;23374;52.758;6.872;2023-02-13T06:52:57;19.20;;;8.30;;
37529;SDS011;23374;52.758;6.872;2023-02-13T06:55:19;16.93;;;7.53;;
37529;SDS011;23374;52.758;6.872;2023-02-13T06:57:41;18.23;;;8.03;;
37529;SDS011;23374;52.758;6.872;2023-02-13T07:00:02;18.40;;;8.60;;
37529;SDS011;23374;52.758;6.872;2023-02-13T07:02:24;18.13;;;8.13;;
37529;SDS011;23374;52.758;6.872;2023-02-13T07:04:44;20.93;;;7.93;;
37529;SDS011;23374;52.758;6.872;2023-02-13T07:07:04;20.00;;;8.00;;
37529;SDS011;23374;52.758;6.872;2023-02-13T07:09:25;15.03;;;7.33;;
37529;SDS011;23374;52.758;6.872;2023-02-13T07:11:46;18.03;;;8.40;;
37529;SDS011;23374;52.758;6.872;2023-02-13T07:14:06;20.57;;;9.03;;
37529;SDS011;23374;52.758;6.872;2023-02-13T07:16:28;17.03;;;8.50;;
37529;SDS011;23374;52.758;6.872;2023-02-13T07:18:48;18.73;;;9.00;;
37529;SDS011;23374;52.758;6.872;2023-02-13T07:21:09;19.60;;;7.93;;
37529;SDS011;23374;52.758;6.872;2023-02-13T07:23:29;18.73;;;8.27;;
37529;SDS011;23374;52.758;6.872;2023-02-13T07:25:50;19.00;;;8.60;;
37529;SDS011;23374;52.758;6.872;2023-02-13T07:28:10;22.43;;;7.43;;
37529;SDS011;23374;52.758;6.872;2023-02-13T07:30:32;18.20;;;8.10;;
37529;SDS011;23374;52.758;6.872;2023-02-13T07:33:00;22.60;;;8.93;;
37529;SDS011;23374;52.758;6.872;2023-02-13T07:35:21;17.37;;;7.90;;
37529;SDS011;23374;52.758;6.872;2023-02-13T07:37:41;18.67;;;8.13;;
37529;SDS011;23374;52.758;6.872;2023-02-13T07:40:02;16.40;;;7.10;;
37529;SDS011;23374;52.758;6.872;2023-02-13T07:42:23;16.30;;;7.20;;
37529;SDS011;23374;52.758;6.872;2023-02-13T07:44:44;15.13;;;7.03;;
37529;SDS011;23374;52.758;6.872;2023-02-13T07:47:04;16.13;;;6.97;;
37529;SDS011;23374;52.758;6.872;2023-02-13T07:49:24;18.73;;;7.40;;
37529;SDS011;23374;52.758;6.872;2023-02-13T07:51:45;15.27;;;7.43;;
37529;SDS011;23374;52.758;6.872;2023-02-13T07:54:06;15.03;;;6.87;;
37529;SDS011;23374;52.758;6.872;2023-02-13T07:56:26;18.90;;;6.63;;
37529;SDS011;23374;52.758;6.872;2023-02-13T07:58:47;16.17;;;6.80;;
37529;SDS011;23374;52.758;6.872;2023-02-13T08:01:08;18.27;;;6.53;;
37529;SDS011;23374;52.758;6.872;2023-02-13T08:03:30;16.43;;;7.37;;
37529;SDS011;23374;52.758;6.872;2023-02-13T08:05:50;17.13;;;8.23;;
37529;SDS011;23374;52.758;6.872;2023-02-13T08:08:11;15.20;;;7.23;;
37529;SDS011;23374;52.758;6.872;2023-02-13T08:10:31;21.70;;;7.57;;
37529;SDS011;23374;52.758;6.872;2023-02-13T08:13:11;18.80;;;7.40;;
37529;SDS011;23374;52.758;6.872;2023-02-13T08:15:33;18.17;;;6.97;;
37529;SDS011;23374;52.758;6.872;2023-02-13T08:17:54;19.27;;;7.50;;
37529;SDS011;23374;52.758;6.872;2023-02-13T08:20:15;21.03;;;7.27;;
37529;SDS011;23374;52.758;6.872;2023-02-13T08:22:35;17.77;;;7.40;;
37529;SDS011;23374;52.758;6.872;2023-02-13T08:24:57;17.30;;;7.60;;
37529;SDS011;23374;52.758;6.872;2023-02-13T08:27:18;13.97;;;7.00;;
37529;SDS011;23374;52.758;6.872;2023-02-13T08:29:38;23.20;;;7.27;;
37529;SDS011;23374;52.758;6.872;2023-02-13T08:31:59;17.97;;;7.03;;
37529;SDS011;23374;52.758;6.872;2023-02-13T08:34:19;16.93;;;7.27;;
37529;SDS011;23374;52.758;6.872;2023-02-13T08:36:39;15.90;;;7.30;;
37529;SDS011;23374;52.758;6.872;2023-02-13T08:39:00;15.37;;;7.50;;
37529;SDS011;23374;52.758;6.872;2023-02-13T08:41:20;18.47;;;7.40;;
37529;SDS011;23374;52.758;6.872;2023-02-13T08:43:41;19.07;;;7.93;;
37529;SDS011;23374;52.758;6.872;2023-02-13T08:46:02;14.57;;;7.70;;
37529;SDS011;23374;52.758;6.872;2023-02-13T08:48:22;17.63;;;7.50;;
37529;SDS011;23374;52.758;6.872;2023-02-13T08:50:43;18.13;;;8.33;;
37529;SDS011;23374;52.758;6.872;2023-02-13T08:53:03;16.40;;;7.87;;
37529;SDS011;23374;52.758;6.872;2023-02-13T08:55:25;18.27;;;7.13;;
37529;SDS011;23374;52.758;6.872;2023-02-13T08:57:46;21.17;;;8.60;;
37529;SDS011;23374;52.758;6.872;2023-02-13T09:00:07;19.60;;;7.97;;
37529;SDS011;23374;52.758;6.872;2023-02-13T09:02:28;20.57;;;7.77;;
37529;SDS011;23374;52.758;6.872;2023-02-13T09:04:48;18.87;;;7.30;;
37529;SDS011;23374;52.758;6.872;2023-02-13T09:07:09;18.07;;;8.60;;
37529;SDS011;23374;52.758;6.872;2023-02-13T09:09:31;16.93;;;7.43;;
37529;SDS011;23374;52.758;6.872;2023-02-13T09:11:51;17.77;;;7.83;;
37529;SDS011;23374;52.758;6.872;2023-02-13T09:14:14;19.57;;;7.53;;
37529;SDS011;23374;52.758;6.872;2023-02-13T09:16:35;19.93;;;9.00;;
37529;SDS011;23374;52.758;6.872;2023-02-13T09:18:55;20.50;;;7.43;;
37529;SDS011;23374;52.758;6.872;2023-02-13T09:21:15;23.83;;;8.57;;
37529;SDS011;23374;52.758;6.872;2023-02-13T09:23:38;19.23;;;7.57;;
37529;SDS011;23374;52.758;6.872;2023-02-13T09:26:00;18.20;;;8.13;;
37529;SDS011;23374;52.758;6.872;2023-02-13T09:28:22;18.50;;;9.23;;
37529;SDS011;23374;52.758;6.872;2023-02-13T09:30:43;18.90;;;8.67;;
37529;SDS011;23374;52.758;6.872;2023-02-13T09:33:08;22.43;;;8.87;;
37529;SDS011;23374;52.758;6.872;2023-02-13T09:35:29;20.70;;;9.43;;
37529;SDS011;23374;52.758;6.872;2023-02-13T09:37:50;21.73;;;9.33;;
37529;SDS011;23374;52.758;6.872;2023-02-13T09:40:28;21.03;;;9.23;;
37529;SDS011;23374;52.758;6.872;2023-02-13T09:44:36;20.43;;;8.73;;
37529;SDS011;23374;52.758;6.872;2023-02-13T09:48:03;23.67;;;9.63;;
37529;SDS011;23374;52.758;6.872;2023-02-13T09:50:27;21.33;;;9.53;;
37529;SDS011;23374;52.758;6.872;2023-02-13T09:52:51;20.33;;;9.17;;
37529;SDS011;23374;52.758;6.872;2023-02-13T09:55:39;28.67;;;10.87;;
37529;SDS011;23374;52.758;6.872;2023-02-13T09:58:17;19.77;;;10.23;;
37529;SDS011;23374;52.758;6.872;2023-02-13T10:00:49;21.97;;;9.30;;
37529;SDS011;23374;52.758;6.872;2023-02-13T10:03:50;23.47;;;10.57;;
37529;SDS011;23374;52.758;6.872;2023-02-13T10:06:38;22.37;;;9.60;;
37529;SDS011;23374;52.758;6.872;2023-02-13T10:11:27;20.17;;;9.50;;
37529;SDS011;23374;52.758;6.872;2023-02-13T10:19:11;22.10;;;10.27;;
37529;SDS011;23374;52.758;6.872;2023-02-13T10:21:57;22.87;;;9.53;;
37529;SDS011;23374;52.758;6.872;2023-02-13T10:24:33;26.43;;;10.63;;
37529;SDS011;23374;52.758;6.872;2023-02-13T10:27:11;27.57;;;11.50;;
37529;SDS011;23374;52.758;6.872;2023-02-13T10:29:52;22.17;;;9.83;;
37529;SDS011;23374;52.758;6.872;2023-02-13T10:32:42;27.03;;;12.03;;
37529;SDS011;23374;52.758;6.872;2023-02-13T10:35:22;28.10;;;11.83;;
37529;SDS011;23374;52.758;6.872;2023-02-13T10:37:51;22.73;;;11.17;;
37529;SDS011;23374;52.758;6.872;2023-02-13T10:40:14;23.63;;;11.67;;
37529;SDS011;23374;52.758;6.872;2023-02-13T10:43:32;24.07;;;11.57;;
37529;SDS011;23374;52.758;6.872;2023-02-13T10:59:45;22.47;;;10.50;;
37529;SDS011;23374;52.758;6.872;2023-02-13T11:04:45;28.40;;;12.50;;
37529;SDS011;23374;52.758;6.872;2023-02-13T11:07:10;25.87;;;11.20;;
37529;SDS011;23374;52.758;6.872;2023-02-13T11:09:37;26.90;;;12.20;;
37529;SDS011;23374;52.758;6.872;2023-02-13T11:13:20;22.97;;;11.70;;
37529;SDS011;23374;52.758;6.872;2023-02-13T11:15:53;23.43;;;11.63;;
37529;SDS011;23374;52.758;6.872;2023-02-13T11:18:23;21.93;;;11.23;;
37529;SDS011;23374;52.758;6.872;2023-02-13T11:20:46;21.30;;;10.20;;
37529;SDS011;23374;52.758;6.872;2023-02-13T11:26:32;24.73;;;10.83;;
37529;SDS011;23374;52.758;6.872;2023-02-13T11:29:05;26.43;;;11.37;;
37529;SDS011;23374;52.758;6.872;2023-02-13T11:31:36;24.77;;;11.70;;
37529;SDS011;23374;52.758;6.872;2023-02-13T11:33:58;28.30;;;11.93;;
37529;SDS011;23374;52.758;6.872;2023-02-13T11:36:36;23.97;;;11.47;;
37529;SDS011;23374;52.758;6.872;2023-02-13T11:39:02;20.07;;;10.30;;
37529;SDS011;23374;52.758;6.872;2023-02-13T11:41:41;21.40;;;10.83;;
37529;SDS011;23374;52.758;6.872;2023-02-13T11:44:03;22.93;;;11.53;;
37529;SDS011;23374;52.758;6.872;2023-02-13T11:46:24;22.40;;;11.03;;
37529;SDS011;23374;52.758;6.872;2023-02-13T11:49:04;29.47;;;11.97;;
37529;SDS011;23374;52.758;6.872;2023-02-13T11:51:55;21.97;;;11.50;;
37529;SDS011;23374;52.758;6.872;2023-02-13T11:54:33;24.27;;;11.53;;
37529;SDS011;23374;52.758;6.872;2023-02-13T11:57:56;22.53;;;11.20;;
37529;SDS011;23374;52.758;6.872;2023-02-13T12:00:37;21.07;;;10.33;;
37529;SDS011;23374;52.758;6.872;2023-02-13T12:03:00;19.50;;;10.80;;
37529;SDS011;23374;52.758;6.872;2023-02-13T12:05:25;21.47;;;11.33;;
37529;SDS011;23374;52.758;6.872;2023-02-13T12:07:47;16.53;;;9.17;;
37529;SDS011;23374;52.758;6.872;2023-02-13T12:10:41;16.63;;;9.20;;
37529;SDS011;23374;52.758;6.872;2023-02-13T12:13:25;14.13;;;8.27;;
37529;SDS011;23374;52.758;6.872;2023-02-13T12:16:28;17.87;;;10.07;;
37529;SDS011;23374;52.758;6.872;2023-02-13T12:18:55;16.93;;;8.30;;
37529;SDS011;23374;52.758;6.872;2023-02-13T12:22:13;17.20;;;8.57;;
37529;SDS011;23374;52.758;6.872;2023-02-13T12:25:26;20.27;;;9.70;;
37529;SDS011;23374;52.758;6.872;2023-02-13T12:37:56;18.50;;;9.60;;
37529;SDS011;23374;52.758;6.872;2023-02-13T12:40:34;17.50;;;10.37;;
37529;SDS011;23374;52.758;6.872;2023-02-13T12:45:11;16.27;;;8.80;;
37529;SDS011;23374;52.758;6.872;2023-02-13T13:02:26;20.77;;;11.27;;
37529;SDS011;23374;52.758;6.872;2023-02-13T13:12:27;16.43;;;8.87;;
37529;SDS011;23374;52.758;6.872;2023-02-13T13:17:57;20.27;;;11.27;;
37529;SDS011;23374;52.758;6.872;2023-02-13T13:20:48;20.93;;;11.40;;
37529;SDS011;23374;52.758;6.872;2023-02-13T13:23:52;20.37;;;11.03;;
37529;SDS011;23374;52.758;6.872;2023-02-13T13:26:44;23.93;;;12.87;;
37529;SDS011;23374;52.758;6.872;2023-02-13T13:29:20;22.50;;;11.97;;
37529;SDS011;23374;52.758;6.872;2023-02-13T13:31:53;22.40;;;12.47;;
37529;SDS011;23374;52.758;6.872;2023-02-13T13:34:21;21.97;;;11.70;;
37529;SDS011;23374;52.758;6.872;2023-02-13T13:36:58;20.47;;;11.77;;
37529;SDS011;23374;52.758;6.872;2023-02-13T13:39:55;20.83;;;11.17;;
37529;SDS011;23374;52.758;6.872;2023-02-13T13:48:25;18.47;;;10.83;;
37529;SDS011;23374;52.758;6.872;2023-02-13T13:51:06;19.73;;;10.70;;
37529;SDS011;23374;52.758;6.872;2023-02-13T13:53:28;20.33;;;10.13;;
37529;SDS011;23374;52.758;6.872;2023-02-13T13:55:59;18.07;;;10.30;;
37529;SDS011;23374;52.758;6.872;2023-02-13T13:58:45;19.47;;;10.37;;
37529;SDS011;23374;52.758;6.872;2023-02-13T14:06:03;16.67;;;9.13;;
37529;SDS011;23374;52.758;6.872;2023-02-13T14:11:57;16.50;;;9.70;;
37529;SDS011;23374;52.758;6.872;2023-02-13T14:14:56;18.00;;;9.30;;
37529;SDS011;23374;52.758;6.872;2023-02-13T14:21:04;18.63;;;10.30;;
37529;SDS011;23374;52.758;6.872;2023-02-13T14:23:36;18.23;;;9.17;;
37529;SDS011;23374;52.758;6.872;2023-02-13T14:26:31;19.17;;;10.57;;
37529;SDS011;23374;52.758;6.872;2023-02-13T14:29:16;18.03;;;10.13;;
37529;SDS011;23374;52.758;6.872;2023-02-13T14:32:29;21.77;;;10.13;;
37529;SDS011;23374;52.758;6.872;2023-02-13T14:35:37;16.30;;;9.57;;
37529;SDS011;23374;52.758;6.872;2023-02-13T14:37:59;17.70;;;9.60;;
37529;SDS011;23374;52.758;6.872;2023-02-13T14:40:48;17.10;;;9.37;;
37529;SDS011;23374;52.758;6.872;2023-02-13T14:46:33;16.17;;;8.70;;
37529;SDS011;23374;52.758;6.872;2023-02-13T14:49:12;18.60;;;9.30;;
37529;SDS011;23374;52.758;6.872;2023-02-13T14:51:50;15.20;;;9.27;;
37529;SDS011;23374;52.758;6.872;2023-02-13T14:55:00;16.23;;;9.23;;
37529;SDS011;23374;52.758;6.872;2023-02-13T14:57:38;18.17;;;10.73;;
37529;SDS011;23374;52.758;6.872;2023-02-13T15:00:27;16.67;;;9.50;;
37529;SDS011;23374;52.758;6.872;2023-02-13T15:03:26;16.70;;;9.63;;
37529;SDS011;23374;52.758;6.872;2023-02-13T15:05:53;19.00;;;9.10;;
37529;SDS011;23374;52.758;6.872;2023-02-13T15:08:23;20.47;;;9.53;;
37529;SDS011;23374;52.758;6.872;2023-02-13T15:10:50;17.13;;;8.33;;
37529;SDS011;23374;52.758;6.872;2023-02-13T15:13:20;16.77;;;8.97;;
37529;SDS011;23374;52.758;6.872;2023-02-13T15:15:42;17.83;;;8.93;;
37529;SDS011;23374;52.758;6.872;2023-02-13T15:18:21;15.97;;;9.60;;
37529;SDS011;23374;52.758;6.872;2023-02-13T15:20:45;19.03;;;10.20;;
37529;SDS011;23374;52.758;6.872;2023-02-13T15:23:07;20.20;;;10.20;;
37529;SDS011;23374;52.758;6.872;2023-02-13T15:25:43;18.67;;;10.67;;
37529;SDS011;23374;52.758;6.872;2023-02-13T15:28:05;18.23;;;10.53;;
37529;SDS011;23374;52.758;6.872;2023-02-13T15:30:28;17.07;;;10.20;;
37529;SDS011;23374;52.758;6.872;2023-02-13T15:32:59;17.33;;;10.27;;
37529;SDS011;23374;52.758;6.872;2023-02-13T15:35:27;18.03;;;9.47;;
37529;SDS011;23374;52.758;6.872;2023-02-13T15:37:49;18.20;;;9.93;;
37529;SDS011;23374;52.758;6.872;2023-02-13T15:40:43;21.27;;;11.00;;
37529;SDS011;23374;52.758;6.872;2023-02-13T15:43:20;18.43;;;10.77;;
37529;SDS011;23374;52.758;6.872;2023-02-13T15:45:49;18.00;;;10.17;;
37529;SDS011;23374;52.758;6.872;2023-02-13T15:48:14;21.03;;;10.27;;
37529;SDS011;23374;52.758;6.872;2023-02-13T15:50:35;22.37;;;11.97;;
37529;SDS011;23374;52.758;6.872;2023-02-13T15:52:56;24.80;;;12.00;;
37529;SDS011;23374;52.758;6.872;2023-02-13T15:55:21;24.70;;;12.50;;
37529;SDS011;23374;52.758;6.872;2023-02-13T15:57:45;21.90;;;12.77;;
37529;SDS011;23374;52.758;6.872;2023-02-13T16:00:12;23.30;;;11.90;;
37529;SDS011;23374;52.758;6.872;2023-02-13T16:02:43;20.33;;;11.00;;
37529;SDS011;23374;52.758;6.872;2023-02-13T16:05:06;20.43;;;11.27;;
37529;SDS011;23374;52.758;6.872;2023-02-13T16:07:29;21.97;;;12.30;;
37529;SDS011;23374;52.758;6.872;2023-02-13T16:10:33;22.30;;;11.57;;
37529;SDS011;23374;52.758;6.872;2023-02-13T16:12:56;21.23;;;12.13;;
37529;SDS011;23374;52.758;6.872;2023-02-13T16:15:20;21.83;;;11.87;;
37529;SDS011;23374;52.758;6.872;2023-02-13T16:17:42;21.57;;;12.10;;
37529;SDS011;23374;52.758;6.872;2023-02-13T16:20:17;21.20;;;12.30;;
37529;SDS011;23374;52.758;6.872;2023-02-13T16:22:44;23.93;;;12.40;;
37529;SDS011;23374;52.758;6.872;2023-02-13T16:25:50;21.47;;;11.67;;
37529;SDS011;23374;52.758;6.872;2023-02-13T16:28:17;24.17;;;13.53;;
37529;SDS011;23374;52.758;6.872;2023-02-13T16:30:45;22.53;;;11.77;;
37529;SDS011;23374;52.758;6.872;2023-02-13T16:33:23;21.67;;;12.63;;
37529;SDS011;23374;52.758;6.872;2023-02-13T16:36:16;24.00;;;12.73;;
37529;SDS011;23374;52.758;6.872;2023-02-13T16:38:48;25.20;;;12.87;;
37529;SDS011;23374;52.758;6.872;2023-02-13T16:42:12;31.93;;;15.23;;
37529;SDS011;23374;52.758;6.872;2023-02-13T16:44:38;28.97;;;13.93;;
37529;SDS011;23374;52.758;6.872;2023-02-13T16:47:03;27.93;;;13.77;;
37529;SDS011;23374;52.758;6.872;2023-02-13T16:49:26;27.93;;;14.27;;
37529;SDS011;23374;52.758;6.872;2023-02-13T16:52:08;23.73;;;13.17;;
37529;SDS011;23374;52.758;6.872;2023-02-13T16:54:50;29.77;;;13.67;;
37529;SDS011;23374;52.758;6.872;2023-02-13T16:57:18;23.67;;;12.60;;